| time (UTC) | temp C | wind direction | speed KPH | gust KPH | rain 1hr cm | rain 24hr cm | rain mn cm | humidity % | barometer mb |
| 20260510081458 | 10 | 138 | 0.0 | 0.0 | 0.00 | 0.43 | 0.00 | 94 | 1010.2 |
| 20260510080002 | 10 | 138 | 0.0 | 0.0 | 0.00 | 0.43 | 0.00 | 94 | 1010.3 |
| 20260510074458 | 10 | 138 | 1.6 | 4.8 | 0.00 | 0.43 | 0.00 | 94 | 1010.5 |
| 20260510072958 | 10 | 143 | 3.2 | 6.4 | 0.00 | 0.43 | 0.00 | 94 | 1010.6 |
| 20260510071500 | 10 | 269 | 0.0 | 3.2 | 0.00 | 0.43 | 0.00 | 94 | 1011.0 |
| 20260510070000 | 10 | 194 | 3.2 | 6.4 | 0.00 | 0.43 | 0.00 | 94 | 1010.9 |
| 20260510064458 | 10 | 324 | 3.2 | 8.0 | 0.00 | 0.43 | 0.00 | 94 | 1010.6 |
| 20260510062958 | 10 | 211 | 0.0 | 0.0 | 0.00 | 0.43 | 0.00 | 94 | 1010.3 |
| 20260510061500 | 10 | 211 | 0.0 | 0.0 | 0.00 | 0.43 | 0.00 | 94 | 1010.5 |
| 20260510060000 | 10 | 211 | 0.0 | 0.0 | 0.00 | 0.43 | 0.00 | 94 | 1010.6 |
| 20260510054457 | 10 | 254 | 0.0 | 0.0 | 0.00 | 0.43 | 0.00 | 94 | 1010.7 |
| 20260510052958 | 10 | 345 | 0.0 | 4.8 | 0.00 | 0.43 | 0.00 | 93 | 1010.9 |
| 20260510051500 | 10 | 346 | 0.0 | 0.0 | 0.00 | 0.43 | 0.00 | 93 | 1010.5 |
| 20260510050003 | 10 | 346 | 0.0 | 0.0 | 0.00 | 0.43 | 0.00 | 93 | 1010.4 |
| 20260510044459 | 10 | 346 | 0.0 | 0.0 | 0.00 | 0.43 | 0.00 | 93 | 1010.3 |
| 20260510042959 | 10 | 346 | 0.0 | 0.0 | 0.00 | 0.43 | 0.00 | 93 | 1010.4 |
| 20260510041503 | 10 | 346 | 0.0 | 0.0 | 0.00 | 0.43 | 0.00 | 93 | 1010.5 |
| 20260510040004 | 10 | 271 | 0.0 | 0.0 | 0.00 | 0.43 | 0.00 | 92 | 1010.5 |
| 20260510034501 | 11 | 271 | 0.0 | 0.0 | 0.00 | 0.43 | 0.43 | 93 | 1010.3 |
| 20260510033002 | 11 | 248 | 0.0 | 1.6 | 0.00 | 0.43 | 0.43 | 93 | 1010.2 |
| 20260510031500 | 11 | 135 | 1.6 | 4.8 | 0.00 | 0.43 | 0.43 | 93 | 1010.2 |
| 20260510030003 | 10 | 134 | 1.6 | 4.8 | 0.00 | 0.43 | 0.43 | 92 | 1010.3 |
| 20260510024500 | 10 | 36 | 0.0 | 0.0 | 0.00 | 0.43 | 0.43 | 92 | 1010.3 |
| 20260510022959 | 10 | 36 | 0.0 | 0.0 | 0.00 | 0.43 | 0.43 | 92 | 1010.2 |
| 20260510021500 | 10 | 36 | 0.0 | 0.0 | 0.00 | 0.43 | 0.43 | 91 | 1010.2 |
| 20260510014502 | 11 | 247 | 0.0 | 0.0 | 0.00 | 0.43 | 0.43 | 91 | 1010.0 |
| 20260510013002 | 11 | 247 | 0.0 | 0.0 | 0.00 | 0.43 | 0.43 | 90 | 1010.0 |
| 20260510011500 | 11 | 247 | 0.0 | 0.0 | 0.00 | 0.43 | 0.43 | 89 | 1009.9 |
| 20260510010001 | 12 | 247 | 0.0 | 0.0 | 0.00 | 0.43 | 0.43 | 88 | 1009.7 |
| 20260510003003 | 13 | 244 | 0.0 | 0.0 | 0.00 | 0.43 | 0.43 | 86 | 1009.4 |
| 20260510001459 | 13 | 244 | 1.6 | 3.2 | 0.00 | 0.43 | 0.43 | 85 | 1009.1 |
| 20260510000004 | 13 | 207 | 3.2 | 4.8 | 0.00 | 0.43 | 0.43 | 83 | 1008.9 |
| 20260509234500 | 14 | 176 | 3.2 | 6.4 | 0.00 | 0.43 | 0.43 | 83 | 1008.8 |
| 20260509233000 | 14 | 176 | 3.2 | 6.4 | 0.00 | 0.43 | 0.43 | 81 | 1008.8 |
| 20260509231500 | 15 | 194 | 3.2 | 6.4 | 0.00 | 0.43 | 0.43 | 81 | 1008.8 |
| 20260509230001 | 15 | 184 | 3.2 | 6.4 | 0.00 | 0.43 | 0.43 | 82 | 1008.8 |
| 20260509224500 | 15 | 240 | 4.8 | 8.0 | 0.00 | 0.43 | 0.43 | 82 | 1008.8 |
| 20260509223000 | 15 | 225 | 4.8 | 11.3 | 0.00 | 0.43 | 0.43 | 81 | 1008.8 |
| 20260509221502 | 15 | 215 | 4.8 | 8.0 | 0.00 | 0.43 | 0.43 | 82 | 1008.8 |
| 20260509220008 | 14 | 244 | 6.4 | 11.3 | 0.00 | 0.43 | 0.43 | 83 | 1009.0 |
| 20260509214502 | 14 | 221 | 4.8 | 11.3 | 0.00 | 0.43 | 0.43 | 85 | 1009.3 |
| 20260509213000 | 14 | 216 | 4.8 | 9.7 | 0.00 | 0.43 | 0.43 | 86 | 1009.2 |
| 20260509211500 | 13 | 199 | 4.8 | 11.3 | 0.00 | 0.43 | 0.43 | 87 | 1009.3 |
| 20260509210001 | 13 | 179 | 4.8 | 11.3 | 0.00 | 0.43 | 0.43 | 89 | 1009.4 |
| 20260509204459 | 13 | 185 | 4.8 | 9.7 | 0.00 | 0.43 | 0.43 | 89 | 1009.5 |
| 20260509201500 | 13 | 279 | 3.2 | 8.0 | 0.00 | 0.43 | 0.43 | 88 | 1009.7 |
| 20260509200001 | 12 | 280 | 4.8 | 9.7 | 0.00 | 0.43 | 0.43 | 89 | 1009.8 |
| 20260509194459 | 12 | 205 | 4.8 | 11.3 | 0.03 | 0.43 | 0.43 | 89 | 1009.7 |
| 20260509193002 | 12 | 173 | 4.8 | 8.0 | 0.03 | 0.43 | 0.43 | 89 | 1009.8 |
| 20260509191500 | 12 | 159 | 1.6 | 8.0 | 0.05 | 0.43 | 0.43 | 91 | 1009.9 |
| 20260509190004 | 12 | 215 | 3.2 | 8.0 | 0.08 | 0.43 | 0.43 | 91 | 1010.3 |
| 20260509184502 | 11 | 172 | 4.8 | 9.7 | 0.05 | 0.41 | 0.41 | 91 | 1010.9 |
| 20260509182959 | 12 | 207 | 6.4 | 9.7 | 0.10 | 0.41 | 0.41 | 91 | 1010.9 |
| 20260509181500 | 12 | 184 | 4.8 | 6.4 | 0.10 | 0.38 | 0.38 | 91 | 1010.8 |
| 20260509180006 | 12 | 176 | 3.2 | 6.4 | 0.15 | 0.36 | 0.36 | 90 | 1010.7 |
| 20260509174500 | 12 | 232 | 1.6 | 4.8 | 0.23 | 0.36 | 0.36 | 90 | 1010.6 |
| 20260509173000 | 12 | 278 | 1.6 | 4.8 | 0.25 | 0.30 | 0.30 | 90 | 1010.5 |
| 20260509171500 | 12 | 273 | 1.6 | 4.8 | 0.28 | 0.28 | 0.28 | 90 | 1011.0 |
| 20260509170003 | 12 | 311 | 1.6 | 4.8 | 0.20 | 0.20 | 0.20 | 88 | 1010.6 |
| 20260509164459 | 12 | 242 | 4.8 | 11.3 | 0.10 | 0.10 | 0.10 | 87 | 1011.1 |
| 20260509161459 | 13 | 217 | 6.4 | 11.3 | 0.00 | 0.00 | 0.00 | 84 | 1011.4 |
| 20260509160004 | 13 | 227 | 6.4 | 14.5 | 0.00 | 0.00 | 0.00 | 82 | 1011.3 |
| 20260509154459 | 13 | 225 | 6.4 | 17.7 | 0.00 | 0.00 | 0.00 | 80 | 1011.5 |
| 20260509152959 | 13 | 215 | 8.0 | 12.9 | 0.00 | 0.00 | 0.00 | 81 | 1011.5 |
| 20260509151459 | 13 | 220 | 8.0 | 16.1 | 0.00 | 0.00 | 0.00 | 81 | 1011.3 |
| 20260509144459 | 13 | 163 | 3.2 | 11.3 | 0.00 | 0.00 | 0.00 | 83 | 1011.3 |
| 20260509142959 | 12 | 165 | 1.6 | 4.8 | 0.00 | 0.00 | 0.00 | 83 | 1011.1 |
| 20260509141459 | 12 | 174 | 1.6 | 4.8 | 0.00 | 0.00 | 0.00 | 83 | 1011.0 |
| 20260509140006 | 12 | 200 | 0.0 | 4.8 | 0.00 | 0.00 | 0.00 | 84 | 1011.1 |
| 20260509134459 | 12 | 234 | 1.6 | 3.2 | 0.00 | 0.00 | 0.00 | 85 | 1011.1 |
| 20260509132959 | 12 | 193 | 0.0 | 4.8 | 0.00 | 0.00 | 0.00 | 85 | 1011.1 |
| 20260509131459 | 11 | 104 | 0.0 | 3.2 | 0.00 | 0.00 | 0.00 | 85 | 1010.7 |
| 20260509130002 | 11 | 166 | 3.2 | 4.8 | 0.00 | 0.00 | 0.00 | 85 | 1010.8 |
| 20260509122959 | 11 | 52 | 1.6 | 4.8 | 0.00 | 0.00 | 0.00 | 85 | 1010.9 |
| 20260509121459 | 11 | 49 | 0.0 | 4.8 | 0.00 | 0.00 | 0.00 | 85 | 1011.0 |
| 20260509120000 | 11 | 37 | 1.6 | 4.8 | 0.00 | 0.00 | 0.00 | 85 | 1011.3 |
| 20260509114459 | 10 | 32 | 1.6 | 4.8 | 0.00 | 0.00 | 0.00 | 86 | 1011.0 |
| 20260509113001 | 10 | 57 | 0.0 | 3.2 | 0.00 | 0.00 | 0.00 | 86 | 1010.9 |
| 20260509111501 | 10 | 113 | 0.0 | 1.6 | 0.00 | 0.00 | 0.00 | 86 | 1010.7 |
| 20260509110003 | 10 | 42 | 1.6 | 4.8 | 0.00 | 0.00 | 0.00 | 86 | 1010.6 |
| 20260509104459 | 10 | 91 | 0.0 | 1.6 | 0.00 | 0.00 | 0.00 | 87 | 1010.9 |
| 20260509102959 | 10 | 355 | 0.0 | 3.2 | 0.00 | 0.00 | 0.00 | 86 | 1010.7 |
| 20260509101459 | 9 | 59 | 0.0 | 4.8 | 0.00 | 0.00 | 0.00 | 87 | 1010.4 |
| 20260509100005 | 9 | 55 | 1.6 | 4.8 | 0.00 | 0.00 | 0.00 | 87 | 1010.4 |
| 20260509094500 | 9 | 64 | 0.0 | 3.2 | 0.00 | 0.00 | 0.00 | 86 | 1010.5 |
| 20260509093001 | 9 | 77 | 0.0 | 3.2 | 0.00 | 0.00 | 0.00 | 87 | 1010.5 |
| 20260509091459 | 9 | 77 | 0.0 | 0.0 | 0.00 | 0.00 | 0.00 | 87 | 1010.8 |
| 20260509090000 | 9 | 77 | 0.0 | 3.2 | 0.00 | 0.00 | 0.00 | 86 | 1010.7 |
| 20260509084459 | 9 | 77 | 0.0 | 3.2 | 0.00 | 0.00 | 0.00 | 86 | 1010.9 |
| 20260509083001 | 9 | 163 | 0.0 | 0.0 | 0.00 | 0.00 | 0.00 | 86 | 1010.9 |